createdAt,value
2019-04-11T00:02:07.002Z,9.65
2019-04-11T00:04:37.950Z,9.68
2019-04-11T00:07:08.847Z,9.67
2019-04-11T00:09:40.794Z,9.68
2019-04-11T00:12:11.128Z,9.68
2019-04-11T00:14:42.192Z,9.65
2019-04-11T00:17:13.839Z,9.67
2019-04-11T00:19:45.396Z,9.65
2019-04-11T00:22:17.406Z,9.66
2019-04-11T00:24:49.188Z,9.68
2019-04-11T00:27:21.142Z,9.69
2019-04-11T00:29:51.754Z,9.65
2019-04-11T00:32:23.357Z,9.60
2019-04-11T00:34:55.365Z,9.63
2019-04-11T00:37:27.289Z,9.63
2019-04-11T00:39:59.669Z,9.70
2019-04-11T00:42:30.501Z,9.70
2019-04-11T00:45:01.172Z,9.71
2019-04-11T00:47:31.834Z,9.66
2019-04-11T00:50:04.066Z,9.49
2019-04-11T00:52:35.066Z,9.52
2019-04-11T00:55:07.079Z,9.51
2019-04-11T00:57:37.757Z,9.51
2019-04-11T01:00:09.078Z,9.55
2019-04-11T01:02:41.801Z,9.42
2019-04-11T01:05:13.437Z,9.42
2019-04-11T01:07:44.039Z,9.29
2019-04-11T01:10:16.206Z,9.14
2019-04-11T01:12:47.009Z,9.14
2019-04-11T01:15:20.318Z,9.05
2019-04-11T01:17:51.735Z,9.05
2019-04-11T01:20:23.704Z,9.01
2019-04-11T01:22:56.395Z,8.95
2019-04-11T01:25:28.520Z,8.95
2019-04-11T01:28:00.547Z,8.91
2019-04-11T01:30:38.904Z,8.94
2019-04-11T01:33:10.863Z,8.88
2019-04-11T01:35:43.648Z,8.88
2019-04-11T01:38:14.999Z,8.88
2019-04-11T01:40:45.803Z,8.88
2019-04-11T01:43:16.742Z,9.00
2019-04-11T01:45:47.586Z,9.00
2019-04-11T01:48:37.493Z,9.01
2019-04-11T01:51:09.632Z,8.99
2019-04-11T01:53:41.007Z,9.06
2019-04-11T01:56:13.428Z,9.15
2019-04-11T01:58:44.275Z,9.09
2019-04-11T02:01:36.913Z,9.09
2019-04-11T02:04:17.349Z,9.21
2019-04-11T02:06:48.201Z,9.21
2019-04-11T02:09:19.921Z,9.20
2019-04-11T02:11:52.147Z,9.20
2019-04-11T02:14:24.050Z,9.15
2019-04-11T02:16:54.806Z,9.19
2019-04-11T02:19:25.980Z,9.19
2019-04-11T02:22:06.316Z,9.27
2019-04-11T02:24:50.163Z,9.13
2019-04-11T02:27:25.986Z,9.18
2019-04-11T02:29:56.897Z,9.28
2019-04-11T02:32:29.280Z,9.45
2019-04-11T02:35:02.517Z,9.45
2019-04-11T02:37:34.388Z,9.59
2019-04-11T02:40:05.498Z,9.59
2019-04-11T02:42:36.637Z,9.76
2019-04-11T02:45:22.802Z,9.76
2019-04-11T02:47:43.446Z,9.88
2019-04-11T02:50:16.143Z,9.95
2019-04-11T02:52:44.899Z,9.94
2019-04-11T02:55:17.086Z,10.03
2019-04-11T02:57:48.372Z,10.06
2019-04-11T03:00:20.869Z,10.05
2019-04-11T03:02:53.357Z,10.04
2019-04-11T03:05:24.730Z,10.05
2019-04-11T03:07:56.427Z,10.16
2019-04-11T03:10:29.035Z,10.13
2019-04-11T03:13:00.772Z,10.17
2019-04-11T03:15:51.023Z,10.12
2019-04-11T03:18:08.664Z,10.19
2019-04-11T03:20:45.944Z,10.14
2019-04-11T03:23:13.816Z,10.18
2019-04-11T03:25:42.881Z,10.15
2019-04-11T03:28:19.248Z,10.18
2019-04-11T03:31:13.741Z,10.21
2019-04-11T03:36:51.274Z,10.28
2019-04-11T03:38:48.215Z,10.16
2019-04-11T03:41:17.402Z,10.13
2019-04-11T03:43:42.267Z,10.13
2019-04-11T03:46:25.031Z,10.10
2019-04-11T03:48:50.720Z,9.93
2019-04-11T03:51:11.065Z,9.94
2019-04-11T03:53:43.213Z,9.97
2019-04-11T03:56:16.237Z,10.01
2019-04-11T03:58:48.285Z,10.01
2019-04-11T04:01:21.231Z,10.12
2019-04-11T04:03:53.975Z,10.09
2019-04-11T04:06:25.747Z,9.97
2019-04-11T04:08:58.286Z,9.88
2019-04-11T04:11:30.477Z,9.96
2019-04-11T04:14:21.108Z,9.91
2019-04-11T04:17:23.631Z,9.99
2019-04-11T04:20:05.351Z,10.07
2019-04-11T04:23:00.901Z,10.18
2019-04-11T04:25:34.732Z,10.15
2019-04-11T04:28:07.343Z,10.03
2019-04-11T04:30:38.898Z,10.09
2019-04-11T04:33:12.394Z,10.10
2019-04-11T04:35:44.610Z,10.06
2019-04-11T04:38:15.737Z,10.05
2019-04-11T04:41:05.898Z,10.17
2019-04-11T04:43:25.170Z,10.22
2019-04-11T04:46:11.521Z,10.26
2019-04-11T04:48:29.952Z,10.28
2019-04-11T04:51:05.847Z,10.34
2019-04-11T04:53:33.563Z,10.33
2019-04-11T04:56:04.745Z,10.44
2019-04-11T04:58:35.365Z,10.54
2019-04-11T05:01:07.012Z,10.55
2019-04-11T05:03:38.002Z,10.56
2019-04-11T05:06:10.117Z,10.51
2019-04-11T05:08:41.047Z,10.56
2019-04-11T05:11:11.944Z,10.63
2019-04-11T05:13:46.312Z,10.74
2019-04-11T05:16:17.686Z,10.77
2019-04-11T05:18:48.483Z,10.58
2019-04-11T05:21:19.134Z,10.59
2019-04-11T05:23:50.229Z,10.64
2019-04-11T05:26:21.553Z,10.62
2019-04-11T05:28:53.012Z,10.62
2019-04-11T05:31:24.729Z,10.80
2019-04-11T05:33:56.079Z,11.00
2019-04-11T05:36:26.766Z,11.04
2019-04-11T05:38:58.255Z,11.14
2019-04-11T05:41:29.353Z,11.22
2019-04-11T05:44:03.145Z,11.39
2019-04-11T05:46:40.884Z,11.35
2019-04-11T05:49:11.338Z,11.26
2019-04-11T05:51:46.239Z,11.37
2019-04-11T05:54:16.444Z,11.37
2019-04-11T05:56:52.126Z,11.34
2019-04-11T05:59:23.892Z,11.30
2019-04-11T06:02:04.377Z,11.28
2019-04-11T06:04:40.578Z,11.10
2019-04-11T06:07:27.246Z,11.27
2019-04-11T06:10:06.036Z,11.42
2019-04-11T06:12:54.729Z,11.30
2019-04-11T06:15:31.282Z,11.26
2019-04-11T06:18:04.912Z,11.30
2019-04-11T06:20:43.809Z,11.26
2019-04-11T06:23:37.179Z,11.36
2019-04-11T06:26:40.963Z,11.37
2019-04-11T06:29:22.888Z,11.35
2019-04-11T06:32:00.362Z,11.25
2019-04-11T06:34:33.354Z,11.23
2019-04-11T06:37:22.520Z,11.26
2019-04-11T06:39:58.277Z,11.23
2019-04-11T06:42:43.498Z,11.17
2019-04-11T06:45:31.805Z,11.28
2019-04-11T06:48:13.506Z,11.38
2019-04-11T06:50:58.361Z,11.29
2019-04-11T06:53:36.462Z,11.34
2019-04-11T06:56:25.374Z,11.41
2019-04-11T10:56:26.364Z,12.08
2019-04-11T10:58:59.536Z,11.97
2019-04-11T11:01:56.095Z,11.86
2019-04-11T11:04:52.704Z,11.63
2019-04-11T11:07:29.261Z,11.52
2019-04-11T11:10:12.130Z,11.56
2019-04-11T11:13:02.345Z,11.46
2019-04-11T11:15:55.903Z,11.39
2019-04-11T11:19:19.459Z,11.25
2019-04-11T11:21:28.584Z,11.37
2019-04-11T11:24:33.835Z,11.61
2019-04-11T11:27:07.270Z,11.73
2019-04-11T11:29:47.393Z,11.78
2019-04-11T11:32:22.984Z,11.83
2019-04-11T11:34:58.938Z,11.63
2019-04-11T11:37:49.294Z,11.69
2019-04-11T11:40:41.152Z,11.58
2019-04-11T11:43:30.958Z,11.50
2019-04-11T11:46:40.424Z,11.70
2019-04-11T11:49:32.572Z,11.57
2019-04-11T11:52:11.083Z,11.65
2019-04-11T11:54:50.031Z,11.70
2019-04-11T11:57:35.068Z,11.79
2019-04-11T12:00:14.893Z,11.86
2019-04-11T12:02:52.977Z,11.88
2019-04-11T12:05:39.122Z,12.13
2019-04-11T12:08:20.329Z,12.48
2019-04-11T12:10:53.455Z,12.62
2019-04-11T12:13:45.752Z,12.41
2019-04-11T12:16:21.366Z,11.97
2019-04-11T12:19:00.544Z,11.94
2019-04-11T12:21:34.676Z,11.85
2019-04-11T12:24:30.250Z,11.82
2019-04-11T12:27:28.789Z,11.91
2019-04-11T12:30:23.913Z,12.09
2019-04-11T12:33:27.966Z,12.08
2019-04-11T12:36:12.611Z,11.89
2019-04-11T12:39:02.071Z,11.54
2019-04-11T12:41:37.292Z,11.53
2019-04-11T12:44:30.303Z,11.42
2019-04-11T12:47:24.725Z,11.58
2019-04-11T12:50:13.113Z,11.58
2019-04-11T12:53:05.443Z,11.67
2019-04-11T12:55:53.904Z,11.46
2019-04-11T12:58:27.836Z,11.25
2019-04-11T13:01:27.432Z,11.07
2019-04-11T13:04:15.158Z,11.15
2019-04-11T13:06:58.881Z,11.12
2019-04-11T13:10:00.361Z,10.99
2019-04-11T13:12:48.029Z,11.00
2019-04-11T13:15:34.713Z,10.94
2019-04-11T13:18:39.128Z,11.08
2019-04-11T13:21:13.617Z,11.14
2019-04-11T13:24:09.377Z,11.25
2019-04-11T13:27:10.915Z,11.21
2019-04-11T13:30:04.770Z,11.29
2019-04-11T13:32:50.282Z,11.18
2019-04-11T13:35:59.125Z,11.17
2019-04-11T13:38:35.065Z,11.17
2019-04-11T13:41:25.659Z,11.12
2019-04-11T13:44:09.958Z,11.04
2019-04-11T13:46:59.605Z,11.03
2019-04-11T13:49:37.407Z,10.99
2019-04-11T13:52:26.793Z,11.03
2019-04-11T13:55:19.498Z,11.01
2019-04-11T13:58:09.765Z,10.99
2019-04-11T14:00:50.248Z,11.09
2019-04-11T14:03:45.676Z,11.04
2019-04-11T14:06:22.656Z,11.00
2019-04-11T14:09:24.491Z,10.93
2019-04-11T14:11:56.582Z,11.00
2019-04-11T14:14:32.926Z,10.97
2019-04-11T14:17:21.902Z,11.06
2019-04-11T14:20:13.619Z,11.03
2019-04-11T14:23:14.762Z,11.04
2019-04-11T14:26:00.964Z,10.99
2019-04-11T14:28:38.056Z,11.04
2019-04-11T14:31:25.785Z,11.02
2019-04-11T14:34:01.282Z,11.02
2019-04-11T14:36:55.617Z,11.02
2019-04-11T14:39:27.322Z,11.00
2019-04-11T14:42:13.297Z,10.93
2019-04-11T14:44:43.903Z,10.91
2019-04-11T14:47:34.767Z,10.80
2019-04-11T14:50:05.501Z,10.75
2019-04-11T14:52:54.719Z,10.69
2019-04-11T14:55:26.441Z,10.69
2019-04-11T14:58:12.291Z,10.68
2019-04-11T15:00:43.586Z,10.68
2019-04-11T15:03:31.579Z,10.69
2019-04-11T15:06:31.321Z,10.71
2019-04-11T15:09:31.398Z,10.78
2019-04-11T15:12:19.666Z,10.75
2019-04-11T15:15:11.698Z,10.78
2019-04-11T15:17:43.693Z,10.73
2019-04-11T15:20:28.170Z,10.84
2019-04-11T15:23:06.988Z,10.81
2019-04-11T15:25:56.724Z,10.82
2019-04-11T15:28:43.707Z,10.85
2019-04-11T15:31:38.717Z,10.80
2019-04-11T15:34:13.201Z,10.90
2019-04-11T15:36:49.421Z,10.90
2019-04-11T15:39:57.950Z,10.90
2019-04-11T15:42:47.319Z,10.90
2019-04-11T15:45:36.641Z,10.86
2019-04-11T15:48:25.753Z,10.77
2019-04-11T15:51:26.444Z,10.77
2019-04-11T15:54:13.950Z,10.77
2019-04-11T15:57:03.518Z,10.69
2019-04-11T15:59:54.260Z,10.81
2019-04-11T16:02:46.464Z,10.73
2019-04-11T16:05:50.893Z,10.77
2019-04-11T16:08:30.260Z,10.65
2019-04-11T16:11:18.493Z,10.70
2019-04-11T16:14:06.832Z,10.75
2019-04-11T16:17:14.036Z,10.74
2019-04-11T16:19:52.072Z,10.69
2019-04-11T16:22:47.480Z,10.69
2019-04-11T16:25:28.925Z,10.69
2019-04-11T16:28:25.283Z,10.75
2019-04-11T16:30:57.684Z,10.83
2019-04-11T16:33:46.184Z,10.88
2019-04-11T16:36:39.818Z,10.82
2019-04-11T16:39:33.074Z,10.79
2019-04-11T16:42:05.791Z,10.79
2019-04-11T16:44:55.220Z,10.75
2019-04-11T16:47:43.308Z,10.74
2019-04-11T16:50:14.252Z,10.73
2019-04-11T16:52:45.406Z,10.74
2019-04-11T16:55:15.830Z,10.75
2019-04-11T16:57:47.340Z,10.77
2019-04-11T17:00:20.332Z,10.80
2019-04-11T17:02:52.647Z,10.80
2019-04-11T17:05:24.097Z,10.85
2019-04-11T17:08:12.645Z,10.83
2019-04-11T17:11:05.048Z,10.83
2019-04-11T17:13:35.477Z,10.83
2019-04-11T17:16:08.328Z,10.83
2019-04-11T17:18:38.552Z,10.87
2019-04-11T17:21:08.885Z,10.83
2019-04-11T17:23:39.593Z,10.82
2019-04-11T17:26:10.016Z,10.95
2019-04-11T17:28:43.279Z,10.89
2019-04-11T17:31:13.734Z,10.92
2019-04-11T17:33:44.424Z,10.92
2019-04-11T17:36:14.955Z,10.88
2019-04-11T17:38:45.217Z,10.92
2019-04-11T17:41:15.905Z,10.93
2019-04-11T17:43:47.033Z,11.00
2019-04-11T17:46:19.013Z,11.02
2019-04-11T17:48:50.568Z,11.07
2019-04-11T17:51:22.635Z,11.10
2019-04-11T17:53:55.531Z,11.08
2019-04-11T17:56:25.649Z,11.08
2019-04-11T17:58:58.092Z,11.07
2019-04-11T18:01:28.557Z,11.12
2019-04-11T18:03:58.916Z,11.13
2019-04-11T18:06:29.055Z,11.20
2019-04-11T18:08:59.504Z,11.12
2019-04-11T18:11:30.042Z,11.15
2019-04-11T18:14:00.986Z,11.12
2019-04-11T18:16:32.134Z,11.17
2019-04-11T18:19:05.821Z,11.19
2019-04-11T18:21:37.181Z,11.21
2019-04-11T18:24:07.979Z,11.23
2019-04-11T18:26:38.343Z,11.25
2019-04-11T18:29:08.686Z,11.31
2019-04-11T18:31:39.216Z,11.31
2019-04-11T18:34:09.536Z,11.33
2019-04-11T18:36:39.722Z,11.28
2019-04-11T18:39:10.515Z,11.32
2019-04-11T18:41:40.822Z,11.17
2019-04-11T18:44:11.265Z,11.21
2019-04-11T18:46:42.842Z,11.19
2019-04-11T18:49:13.295Z,11.22
2019-04-11T18:51:43.259Z,11.21
2019-04-11T18:54:14.790Z,11.30
2019-04-11T18:56:46.229Z,11.34
2019-04-11T18:59:16.394Z,11.36
2019-04-11T19:01:47.464Z,11.41
2019-04-11T19:04:17.846Z,11.35
2019-04-11T19:06:48.166Z,11.39
2019-04-11T19:09:19.568Z,11.36
2019-04-11T19:11:52.195Z,11.39
2019-04-11T19:14:24.968Z,11.38
2019-04-11T19:16:58.510Z,11.43
2019-04-11T19:19:28.728Z,11.48
2019-04-11T19:21:59.914Z,11.54
2019-04-11T19:24:35.607Z,11.56
2019-04-11T19:27:02.656Z,11.53
2019-04-11T19:29:32.808Z,11.62
2019-04-11T19:32:03.092Z,11.64
2019-04-11T19:34:33.412Z,11.67
2019-04-11T19:37:04.023Z,11.71
2019-04-11T19:39:35.107Z,11.70
2019-04-11T19:42:08.974Z,11.78
2019-04-11T19:44:49.370Z,11.79
2019-04-11T19:47:21.364Z,11.81
2019-04-11T19:49:51.690Z,11.83
2019-04-11T19:52:26.536Z,11.78
2019-04-11T19:55:04.701Z,11.72
2019-04-11T19:57:38.265Z,11.77
2019-04-11T20:00:10.816Z,11.72
2019-04-11T20:02:44.546Z,11.73
2019-04-11T20:05:15.630Z,11.76
2019-04-11T20:07:46.976Z,11.79
2019-04-11T20:10:18.882Z,11.84
2019-04-11T20:12:49.718Z,11.83
2019-04-11T20:15:22.144Z,11.84
2019-04-11T20:17:55.480Z,11.84
2019-04-11T20:20:25.982Z,11.78
2019-04-11T20:22:59.109Z,11.75
2019-04-11T20:25:30.884Z,11.69
2019-04-11T20:28:01.988Z,11.66
2019-04-11T20:30:32.422Z,11.56
2019-04-11T20:33:03.711Z,11.66
2019-04-11T20:35:34.062Z,11.70
2019-04-11T20:38:04.884Z,11.74
2019-04-11T20:40:36.569Z,11.77
2019-04-11T20:43:10.042Z,11.78
2019-04-11T20:45:41.151Z,11.76
2019-04-11T20:48:11.689Z,11.80
2019-04-11T20:50:42.009Z,11.66
2019-04-11T20:53:13.339Z,11.75
2019-04-11T20:55:44.795Z,11.77
2019-04-11T20:58:26.545Z,11.80
2019-04-11T21:03:31.982Z,11.80
2019-04-11T21:06:03.079Z,11.83
2019-04-11T21:08:36.624Z,11.86
2019-04-11T21:11:06.839Z,11.87
2019-04-11T21:13:38.372Z,11.86
2019-04-11T21:16:14.125Z,11.85
2019-04-11T21:18:45.017Z,11.88
2019-04-11T21:21:16.189Z,11.88
2019-04-11T21:23:46.771Z,11.84
2019-04-11T21:26:17.301Z,11.83
2019-04-11T21:28:48.894Z,11.87
2019-04-11T21:31:20.061Z,11.93
2019-04-11T21:33:50.989Z,11.97
2019-04-11T21:36:21.639Z,11.99
2019-04-11T21:39:03.561Z,11.99
2019-04-11T21:41:36.051Z,11.93
2019-04-11T21:44:06.063Z,11.90
2019-04-11T21:46:38.087Z,11.80
2019-04-11T21:49:10.915Z,11.87
2019-04-11T21:51:44.426Z,11.96
2019-04-11T21:54:15.863Z,11.99
2019-04-11T21:56:49.286Z,12.04
2019-04-11T21:59:20.319Z,12.08
2019-04-11T22:01:53.850Z,12.07
2019-04-11T22:04:26.912Z,12.09
2019-04-11T22:06:55.965Z,12.07
2019-04-11T22:09:26.600Z,12.03
2019-04-11T22:11:57.006Z,12.08
2019-04-11T22:14:27.342Z,12.05
2019-04-11T22:16:57.604Z,12.08
2019-04-11T22:19:27.835Z,12.09
2019-04-11T22:21:58.304Z,12.11
2019-04-11T22:24:28.846Z,12.14
2019-04-11T22:26:59.652Z,12.12
2019-04-11T22:29:30.143Z,12.05
2019-04-11T22:32:00.706Z,11.98
2019-04-11T22:34:43.029Z,11.99
2019-04-11T22:37:13.889Z,12.02
2019-04-11T22:39:44.359Z,12.09
2019-04-11T22:42:14.924Z,12.11
2019-04-11T22:44:45.261Z,12.15
2019-04-11T22:47:15.695Z,12.15
2019-04-11T22:49:46.508Z,12.17
2019-04-11T22:52:16.667Z,12.12
2019-04-11T22:54:47.298Z,11.99
2019-04-11T22:57:17.702Z,11.95
2019-04-11T22:59:48.122Z,12.02
2019-04-11T23:02:52.747Z,12.07
2019-04-11T23:05:22.961Z,12.05
2019-04-11T23:07:53.176Z,11.96
2019-04-11T23:10:23.504Z,11.83
2019-04-11T23:12:54.027Z,11.73
2019-04-11T23:15:24.399Z,11.79
2019-04-11T23:17:55.007Z,11.84
2019-04-11T23:20:26.700Z,11.84
2019-04-11T23:22:57.027Z,11.85
2019-04-11T23:25:27.515Z,11.84
2019-04-11T23:27:58.185Z,11.86
2019-04-11T23:30:28.752Z,11.84
2019-04-11T23:33:00.531Z,11.82
2019-04-11T23:35:30.934Z,11.76
2019-04-11T23:38:01.377Z,11.70
2019-04-11T23:40:31.934Z,11.64
2019-04-11T23:43:02.536Z,11.58
2019-04-11T23:45:33.290Z,11.36
2019-04-11T23:48:03.997Z,11.15
2019-04-11T23:50:34.385Z,11.17
2019-04-11T23:53:04.970Z,11.03
2019-04-11T23:55:35.506Z,10.94
2019-04-11T23:58:05.924Z,10.92
